Time;durP1;ratioP1;P1;durP2;ratioP2;P2;SDS_P1;SDS_P2;PMS_P1;PMS_P2;Temp;Humidity;BMP_temperature;BMP_pressure;BME280_temperature;BME280_humidity;BME280_pressure;Samples;Min_cycle;Max_cycle;Signal;HPM_P1;HPM_P2
2023/03/04 00:09:26;;;;;;;32.00;16.50;;;;;;;4.64;83.09;99814.03;682177;1261;139858;-85
2023/03/04 00:24:31;;;;;;;30.70;14.70;;;;;;;4.77;82.11;99819.16;682123;1262;138363;-85
2023/03/04 00:39:34;;;;;;;32.50;14.90;;;;;;;4.78;81.69;99810.95;682263;1264;138934;-87
2023/03/04 00:54:37;;;;;;;32.60;15.00;;;;;;;4.80;81.97;99778.76;682380;1262;138677;-89
2023/03/04 01:09:41;;;;;;;29.10;14.60;;;;;;;4.82;81.66;99771.88;681903;1262;139375;-84
2023/03/04 01:24:44;;;;;;;27.70;14.40;;;;;;;4.78;81.88;99746.65;682248;1259;138493;-85
2023/03/04 01:39:47;;;;;;;24.00;12.60;;;;;;;4.73;82.61;99716.65;682115;1264;138446;-85
2023/03/04 01:54:51;;;;;;;31.20;15.00;;;;;;;4.93;81.17;99698.41;682364;1259;138878;-85
2023/03/04 02:09:54;;;;;;;40.00;19.70;;;;;;;4.90;81.45;99683.27;682132;1259;138970;-85
2023/03/04 02:25:10;;;;;;;23.50;13.10;;;;;;;4.88;81.18;99661.54;682495;1263;138874;-84
2023/03/04 02:40:20;;;;;;;21.50;11.10;;;;;;;4.84;80.95;99624.57;682405;1262;138714;-85
2023/03/04 02:55:23;;;;;;;20.90;11.80;;;;;;;5.00;79.91;99603.63;682546;1261;138548;-86
2023/03/04 03:10:26;;;;;;;19.80;10.70;;;;;;;5.05;79.67;99580.92;682495;1259;139270;-85
2023/03/04 03:25:30;;;;;;;28.90;11.60;;;;;;;5.07;79.86;99566.55;682562;1262;139161;-84
2023/03/04 03:40:33;;;;;;;17.70;9.10;;;;;;;5.14;80.13;99551.11;682527;1262;138979;-84
2023/03/04 03:55:37;;;;;;;21.20;10.50;;;;;;;5.27;80.25;99545.95;682587;1263;140454;-84
2023/03/04 04:10:41;;;;;;;22.00;10.00;;;;;;;5.38;80.39;99541.28;682345;1263;138735;-85
2023/03/04 04:25:44;;;;;;;24.80;9.80;;;;;;;5.44;80.22;99529.34;682486;1263;138411;-84
2023/03/04 04:40:47;;;;;;;18.80;8.60;;;;;;;5.55;80.43;99519.55;682451;1259;138468;-84
2023/03/04 04:55:50;;;;;;;20.80;10.40;;;;;;;5.51;80.48;99519.08;682430;1259;138211;-84
2023/03/04 05:10:53;;;;;;;22.30;9.20;;;;;;;5.45;80.48;99514.34;682049;1260;138961;-84
2023/03/04 05:25:57;;;;;;;30.40;13.30;;;;;;;5.47;81.52;99509.73;682310;1263;138371;-83
2023/03/04 05:41:04;;;;;;;28.00;9.60;;;;;;;5.44;82.51;99509.98;682357;1263;138827;-84
2023/03/04 05:56:15;;;;;;;25.70;10.40;;;;;;;5.43;83.27;99502.40;682351;1262;138402;-85
2023/03/04 06:11:19;;;;;;;35.70;13.70;;;;;;;5.44;84.13;99515.10;682252;1262;138745;-85
2023/03/04 06:26:23;;;;;;;18.00;8.10;;;;;;;5.70;83.69;99516.74;682449;1262;139164;-87
2023/03/04 06:41:26;;;;;;;37.00;16.60;;;;;;;5.89;83.54;99506.57;682532;1259;138449;-83
2023/03/04 06:56:29;;;;;;;27.70;10.90;;;;;;;5.99;82.85;99512.01;682573;1262;138647;-85
2023/03/04 07:11:32;;;;;;;30.60;11.70;;;;;;;6.48;82.51;99496.93;682397;1260;138578;-84
2023/03/04 07:26:56;;;;;;;51.40;19.60;;;;;;;6.63;81.69;99503.87;682633;1262;138929;-85
2023/03/04 07:42:01;;;;;;;49.60;17.50;;;;;;;6.72;81.28;99502.05;682603;1258;138419;-85
2023/03/04 07:57:04;;;;;;;67.50;35.40;;;;;;;7.06;79.95;99504.20;682463;1262;138425;-85
2023/03/04 08:12:08;;;;;;;23.00;11.80;;;;;;;7.19;79.25;99503.25;682378;1262;138903;-89
2023/03/04 08:27:11;;;;;;;24.80;10.50;;;;;;;7.33;78.64;99503.79;682553;1265;139288;-86
2023/03/04 08:42:14;;;;;;;110.00;41.30;;;;;;;7.56;77.18;99503.95;682827;1263;139119;-86
2023/03/04 08:57:21;;;;;;;39.40;15.70;;;;;;;7.49;74.88;99494.61;682458;1262;139097;-87
2023/03/04 09:12:25;;;;;;;53.70;21.50;;;;;;;7.70;73.58;99496.64;682520;1264;138417;-85
2023/03/04 09:27:30;;;;;;;31.90;15.00;;;;;;;7.78;70.95;99498.99;682524;1262;138753;-84
2023/03/04 09:42:46;;;;;;;25.50;11.70;;;;;;;7.88;68.28;99503.22;682669;1262;138697;-83
2023/03/04 09:58:05;;;;;;;10.40;6.70;;;;;;;7.74;64.90;99504.79;682395;1263;139029;-85
2023/03/04 10:13:24;;;;;;;11.30;5.00;;;;;;;7.86;63.84;99505.48;682461;1273;138509;-83
2023/03/04 10:28:30;;;;;;;11.00;4.80;;;;;;;7.36;63.70;99512.96;682551;1262;139304;-86
2023/03/04 10:43:39;;;;;;;39.50;16.90;;;;;;;7.16;64.78;99506.16;682777;1263;138772;-88
2023/03/04 10:58:45;;;;;;;17.90;8.20;;;;;;;7.85;62.53;99498.98;682744;1265;138721;-89
2023/03/04 11:14:00;;;;;;;16.10;5.20;;;;;;;8.44;56.80;99507.95;683120;1263;138800;-85
2023/03/04 11:29:20;;;;;;;34.10;12.50;;;;;;;8.82;52.89;99507.32;682720;1262;137951;-84
2023/03/04 11:44:24;;;;;;;24.70;8.90;;;;;;;8.78;50.30;99497.83;682820;1273;137802;-84
2023/03/04 12:00:02;;;;;;;38.30;14.00;;;;;;;8.23;49.11;99503.34;682728;1262;137676;-89
2023/03/04 12:15:39;;;;;;;24.70;9.10;;;;;;;8.26;47.89;99509.02;682592;1263;137770;-85
2023/03/04 12:31:08;;;;;;;17.50;6.60;;;;;;;8.68;47.12;99509.27;682808;1263;137747;-86
2023/03/04 12:46:18;;;;;;;;;;;;;;;10.00;46.32;99504.98;682762;1262;137797;-86
2023/03/04 13:01:38;;;;;;;30.40;10.60;;;;;;;9.89;42.27;99513.27;683153;1263;123954;-86
2023/03/04 13:16:47;;;;;;;12.10;4.90;;;;;;;9.27;42.42;99546.39;682899;1263;137628;-85
2023/03/04 13:31:59;;;;;;;25.70;6.80;;;;;;;10.22;41.38;99572.06;683171;1263;137691;-87
2023/03/04 13:47:13;;;;;;;15.80;5.00;;;;;;;9.89;39.23;99598.23;683007;1263;138036;-85
2023/03/04 14:02:21;;;;;;;7.30;3.20;;;;;;;13.04;38.44;99637.10;683130;1263;138813;-86
2023/03/04 14:17:38;;;;;;;15.30;5.00;;;;;;;14.09;36.45;99648.58;682924;1264;137541;-85
2023/03/04 14:32:41;;;;;;;34.30;11.20;;;;;;;13.11;35.44;99655.41;683019;1263;137855;-85
2023/03/04 14:47:47;;;;;;;18.90;6.00;;;;;;;9.31;36.84;99671.01;683163;1264;138135;-87
2023/03/04 15:02:53;;;;;;;24.60;8.80;;;;;;;6.88;38.44;99685.48;683138;1260;137592;-87
2023/03/04 15:17:59;;;;;;;101.70;40.20;;;;;;;6.00;39.47;99707.27;683049;1264;137626;-86
2023/03/04 15:33:04;;;;;;;41.80;14.80;;;;;;;5.55;40.43;99724.70;683194;1259;138150;-86
2023/03/04 15:48:11;;;;;;;70.70;24.00;;;;;;;5.23;41.13;99727.75;683204;1262;137761;-86
2023/03/04 16:03:17;;;;;;;56.40;19.40;;;;;;;4.95;41.17;99741.81;683426;1257;137629;-88
2023/03/04 16:18:23;;;;;;;90.70;29.30;;;;;;;4.32;41.76;99766.16;683454;1260;137673;-87
2023/03/04 16:33:27;;;;;;;81.70;24.50;;;;;;;3.75;42.60;99781.16;683005;1260;138020;-85
2023/03/04 16:48:31;;;;;;;50.40;17.20;;;;;;;3.44;43.43;99804.33;683472;1260;138498;-86
2023/03/04 17:03:34;;;;;;;116.20;36.10;;;;;;;3.35;43.68;99816.65;682364;1259;137890;-85
2023/03/04 17:18:38;;;;;;;70.60;25.20;;;;;;;3.09;43.85;99831.77;682543;1263;138233;-85
2023/03/04 17:33:42;;;;;;;46.90;17.10;;;;;;;2.93;44.31;99847.14;682567;1259;138302;-84
2023/03/04 17:48:46;;;;;;;67.00;24.60;;;;;;;2.79;44.41;99851.12;682752;1262;138066;-85
2023/03/04 18:03:50;;;;;;;128.80;41.70;;;;;;;2.54;44.87;99850.77;683271;1256;138119;-85
2023/03/04 18:18:56;;;;;;;92.10;32.90;;;;;;;2.56;45.11;99857.92;683053;1262;138264;-85
2023/03/04 18:34:00;;;;;;;89.10;30.00;;;;;;;2.27;45.48;99857.59;683078;1262;137958;-85
2023/03/04 18:49:07;;;;;;;54.90;24.60;;;;;;;2.18;45.64;99856.90;683165;1262;137999;-86
2023/03/04 19:04:13;;;;;;;82.30;29.80;;;;;;;1.91;46.63;99866.59;683190;1260;137858;-85
2023/03/04 19:19:16;;;;;;;135.60;47.60;;;;;;;1.76;47.43;99866.42;683331;1256;138192;-85
2023/03/04 19:34:20;;;;;;;50.50;17.20;;;;;;;1.65;48.49;99872.06;683339;1262;138166;-87
2023/03/04 19:49:26;;;;;;;;;;;;;;;1.57;48.09;99880.81;683244;1263;138895;-86
2023/03/04 20:04:30;;;;;;;38.20;14.90;;;;;;;1.51;48.10;99884.55;683179;1263;124126;-88
2023/03/04 20:19:35;;;;;;;34.80;14.20;;;;;;;1.27;48.75;99882.29;682902;1265;137746;-87
2023/03/04 20:34:38;;;;;;;33.10;10.80;;;;;;;1.31;48.23;99889.16;682952;1272;138955;-86
2023/03/04 20:49:42;;;;;;;32.00;14.20;;;;;;;1.41;48.12;99890.66;683028;1259;138629;-86
2023/03/04 21:04:46;;;;;;;29.90;11.40;;;;;;;1.31;48.74;99885.17;682723;1259;138099;-86
2023/03/04 21:19:50;;;;;;;25.80;7.20;;;;;;;1.28;49.26;99875.52;683184;1259;137970;-86
2023/03/04 21:34:54;;;;;;;12.80;5.30;;;;;;;1.38;49.17;99872.02;682975;1260;138125;-84
2023/03/04 21:49:58;;;;;;;47.20;12.20;;;;;;;1.29;49.71;99864.48;683257;1260;138044;-84
2023/03/04 22:05:01;;;;;;;39.80;12.90;;;;;;;1.21;50.56;99851.61;683360;1260;138243;-83
2023/03/04 22:20:06;;;;;;;37.80;10.70;;;;;;;1.23;50.83;99843.58;683498;1258;137905;-83
2023/03/04 22:35:09;;;;;;;53.10;13.80;;;;;;;1.22;50.82;99830.23;683186;1262;137982;-84
2023/03/04 22:50:12;;;;;;;25.00;11.30;;;;;;;1.16;50.78;99821.73;683451;1260;138185;-83
2023/03/04 23:05:19;;;;;;;32.80;10.20;;;;;;;1.07;50.38;99807.77;682930;1262;137988;-82
2023/03/04 23:20:23;;;;;;;37.40;10.20;;;;;;;1.06;50.70;99802.66;683076;1260;138385;-83
2023/03/04 23:35:26;;;;;;;16.20;5.60;;;;;;;1.10;50.86;99787.48;682823;1261;138126;-82
2023/03/04 23:50:30;;;;;;;12.40;5.80;;;;;;;0.99;50.69;99777.92;682921;1262;138025;-84
